createdAt,value
2019-02-26T00:01:55.051Z,7.40
2019-02-26T00:04:32.753Z,7.30
2019-02-26T00:07:18.226Z,7.30
2019-02-26T00:09:55.703Z,7.30
2019-02-26T00:12:35.470Z,7.30
2019-02-26T00:15:14.853Z,7.20
2019-02-26T00:17:57.220Z,7.20
2019-02-26T00:20:41.416Z,7.20
2019-02-26T00:23:23.604Z,7.20
2019-02-26T00:26:04.236Z,7.20
2019-02-26T00:28:46.460Z,7.20
2019-02-26T00:31:23.840Z,7.20
2019-02-26T00:33:59.574Z,7.20
2019-02-26T00:36:57.266Z,7.20
2019-02-26T00:39:36.193Z,7.10
2019-02-26T00:42:19.503Z,7.10
2019-02-26T01:04:54.539Z,6.90
2019-02-26T01:08:48.283Z,6.90
2019-02-26T01:21:08.710Z,6.70
2019-02-26T01:24:03.777Z,6.70
2019-02-26T01:27:17.705Z,6.70
2019-02-26T01:38:49.153Z,6.60
2019-02-26T01:42:57.376Z,6.60
2019-02-26T01:50:52.120Z,6.60
2019-02-26T01:57:21.573Z,6.50
2019-02-26T02:00:38.671Z,6.50
2019-02-26T02:03:56.138Z,6.50
2019-02-26T02:06:50.968Z,6.50
2019-02-26T02:10:14.155Z,6.50
2019-02-26T02:12:57.701Z,6.50
2019-02-26T02:16:20.015Z,6.50
2019-02-26T02:19:15.513Z,6.50
2019-02-26T02:22:35.086Z,6.50
2019-02-26T02:25:43.344Z,6.40
2019-02-26T02:28:46.898Z,6.40
2019-02-26T02:32:23.379Z,6.40
2019-02-26T02:35:49.777Z,6.40
2019-02-26T02:38:48.611Z,6.40
2019-02-26T02:42:08.941Z,6.40
2019-02-26T02:48:00.615Z,6.30
2019-02-26T02:50:59.715Z,6.30
2019-02-26T02:51:39.441Z,6.40
2019-02-26T02:54:15.538Z,6.30
2019-02-26T02:58:34.905Z,6.30
2019-02-26T03:05:43.276Z,6.30
2019-02-26T03:08:51.085Z,6.20
2019-02-26T03:12:07.891Z,6.20
2019-02-26T03:15:53.433Z,6.20
2019-02-26T03:19:10.122Z,6.20
2019-02-26T03:26:23.527Z,6.20
2019-02-26T03:37:11.847Z,6.10
2019-02-26T03:39:48.857Z,6.10
2019-02-26T03:42:24.117Z,6.10
2019-02-26T03:44:59.668Z,6.10
2019-02-26T03:52:00.760Z,6.20
2019-02-26T03:54:42.968Z,6.20
2019-02-26T03:57:47.561Z,6.20
2019-02-26T04:00:46.906Z,6.20
2019-02-26T04:03:36.710Z,6.20
2019-02-26T04:06:18.889Z,6.20
2019-02-26T04:08:58.945Z,6.20
2019-02-26T04:11:45.651Z,6.20
2019-02-26T04:14:40.806Z,6.20
2019-02-26T04:17:36.789Z,6.20
2019-02-26T04:20:13.211Z,6.20
2019-02-26T04:22:50.016Z,6.20
2019-02-26T04:25:36.584Z,6.20
2019-02-26T04:28:36.287Z,6.20
2019-02-26T04:31:57.561Z,6.30
2019-02-26T04:35:27.171Z,6.20
2019-02-26T04:38:52.629Z,6.30
2019-02-26T04:42:05.381Z,6.20
2019-02-26T04:45:34.061Z,6.20
2019-02-26T04:48:26.933Z,6.20
2019-02-26T04:58:38.098Z,6.20
2019-02-26T05:01:16.388Z,6.20
2019-02-26T05:03:59.844Z,6.20
2019-02-26T05:06:39.043Z,6.20
2019-02-26T05:09:25.325Z,6.20
2019-02-26T05:12:05.921Z,6.20
2019-02-26T05:14:53.255Z,6.20
2019-02-26T05:17:34.190Z,6.20
2019-02-26T05:20:40.106Z,6.20
2019-02-26T05:23:25.916Z,6.20
2019-02-26T05:26:15.259Z,6.20
2019-02-26T05:29:01.521Z,6.20
2019-02-26T05:31:50.327Z,6.20
2019-02-26T05:34:39.884Z,6.20
2019-02-26T05:37:21.986Z,6.20
2019-02-26T05:40:00.571Z,6.20
2019-02-26T05:42:48.285Z,6.10
2019-02-26T05:45:30.048Z,6.10
2019-02-26T05:48:21.305Z,6.10
2019-02-26T05:51:18.934Z,6.10
2019-02-26T05:54:12.265Z,6.10
2019-02-26T05:56:52.837Z,6.10
2019-02-26T05:59:42.898Z,6.10
2019-02-26T06:02:25.251Z,6.00
2019-02-26T06:05:07.039Z,6.00
2019-02-26T06:07:53.382Z,6.00
2019-02-26T06:10:42.447Z,6.10
2019-02-26T06:13:47.287Z,6.10
2019-02-26T06:16:38.562Z,6.10
2019-02-26T06:19:59.379Z,6.10
2019-02-26T06:22:48.874Z,6.10
2019-02-26T06:25:49.906Z,6.10
2019-02-26T06:28:52.988Z,6.10
2019-02-26T06:31:44.590Z,6.10
2019-02-26T06:34:39.402Z,6.10
2019-02-26T06:37:42.779Z,6.10
2019-02-26T06:40:32.395Z,6.10
2019-02-26T06:43:25.863Z,6.10
2019-02-26T06:46:12.305Z,6.10
2019-02-26T06:49:12.412Z,6.20
2019-02-26T06:51:54.791Z,6.20
2019-02-26T06:54:36.616Z,6.20
2019-02-26T06:57:44.017Z,6.20
2019-02-26T07:00:55.428Z,6.20
2019-02-26T07:03:58.792Z,6.30
2019-02-26T07:06:51.050Z,6.30
2019-02-26T07:09:37.279Z,6.30
2019-02-26T07:12:45.516Z,6.30
2019-02-26T07:15:37.682Z,6.30
2019-02-26T07:18:25.136Z,6.40
2019-02-26T07:21:12.753Z,6.40
2019-02-26T07:24:17.562Z,6.40
2019-02-26T07:27:06.573Z,6.50
2019-02-26T07:30:04.532Z,6.50
2019-02-26T07:32:51.262Z,6.60
2019-02-26T07:35:39.679Z,6.60
2019-02-26T07:38:41.591Z,6.60
2019-02-26T07:41:44.651Z,6.60
2019-02-26T07:44:48.216Z,6.70
2019-02-26T07:47:41.035Z,6.70
2019-02-26T07:50:41.567Z,6.70
2019-02-26T07:53:22.728Z,6.80
2019-02-26T07:56:23.867Z,6.80
2019-02-26T07:59:06.735Z,6.90
2019-02-26T08:01:47.112Z,6.90
2019-02-26T08:04:32.314Z,7.00
2019-02-26T08:43:13.070Z,8.30
2019-02-26T09:35:58.262Z,11.00
2019-02-26T10:09:45.984Z,13.10
2019-02-26T10:13:51.161Z,13.40
2019-02-26T10:20:14.296Z,13.90
2019-02-26T10:23:06.326Z,14.10
2019-02-26T12:16:44.914Z,17.30
2019-02-26T18:27:06.650Z,16.20
2019-02-26T18:29:56.805Z,16.10
2019-02-26T18:33:41.883Z,16.00
2019-02-26T20:28:15.321Z,14.90
2019-02-26T20:31:05.716Z,14.90
